createdAt,value
2018-01-02T00:00:44.135Z,1.50
2018-01-02T00:03:11.792Z,1.00
2018-01-02T00:05:39.304Z,1.00
2018-01-02T00:08:06.827Z,1.12
2018-01-02T00:10:34.328Z,1.80
2018-01-02T00:13:01.846Z,1.20
2018-01-02T00:15:29.336Z,1.87
2018-01-02T00:17:56.864Z,2.85
2018-01-02T00:20:24.409Z,1.70
2018-01-02T00:22:51.983Z,1.25
2018-01-02T00:25:19.496Z,1.80
2018-01-02T00:27:47.000Z,4.82
2018-01-02T00:30:14.518Z,1.80
2018-01-02T00:32:42.009Z,1.95
2018-01-02T00:35:09.518Z,1.25
2018-01-02T00:37:37.020Z,1.87
2018-01-02T00:40:04.525Z,0.70
2018-01-02T00:42:32.035Z,1.20
2018-01-02T00:44:59.536Z,1.45
2018-01-02T00:47:27.045Z,0.88
2018-01-02T00:49:55.302Z,1.30
2018-01-02T00:52:22.810Z,1.25
2018-01-02T00:54:50.304Z,2.25
2018-01-02T00:57:17.798Z,0.80
2018-01-02T00:59:46.075Z,0.65
2018-01-02T01:02:14.337Z,0.90
2018-01-02T01:04:41.845Z,1.62
2018-01-02T01:07:09.344Z,0.60
2018-01-02T01:09:37.085Z,0.80
2018-01-02T01:12:04.607Z,1.60
2018-01-02T01:14:32.100Z,1.25
2018-01-02T01:16:59.619Z,2.85
2018-01-02T01:19:27.887Z,1.90
2018-01-02T01:21:56.177Z,2.17
2018-01-02T01:24:23.683Z,1.45
2018-01-02T01:26:51.191Z,1.58
2018-01-02T01:29:19.449Z,1.75
2018-01-02T01:31:46.966Z,3.65
2018-01-02T01:34:14.453Z,0.90
2018-01-02T01:36:41.947Z,2.92
2018-01-02T01:39:11.240Z,2.50
2018-01-02T01:41:39.488Z,3.47
2018-01-02T01:44:06.995Z,1.20
2018-01-02T01:46:34.504Z,3.95
2018-01-02T01:49:02.038Z,2.03
2018-01-02T01:51:29.540Z,3.67
2018-01-02T01:53:57.028Z,2.58
2018-01-02T01:56:25.310Z,1.98
2018-01-02T01:58:52.827Z,1.60
2018-01-02T02:01:20.346Z,5.75
2018-01-02T02:03:47.840Z,1.80
2018-01-02T02:06:15.352Z,1.27
2018-01-02T02:08:43.792Z,2.22
2018-01-02T02:11:11.293Z,1.10
2018-01-02T02:13:38.808Z,1.80
2018-01-02T02:16:06.310Z,1.77
2018-01-02T02:18:33.852Z,2.03
2018-01-02T02:21:02.109Z,1.58
2018-01-02T02:23:29.625Z,2.35
2018-01-02T02:25:57.178Z,6.32
2018-01-02T02:28:24.685Z,5.70
2018-01-02T02:30:52.211Z,2.35
2018-01-02T02:33:19.712Z,5.00
2018-01-02T02:35:47.237Z,4.62
2018-01-02T02:38:14.762Z,2.53
2018-01-02T02:41:09.108Z,1.33
2018-01-02T02:43:36.612Z,5.30
2018-01-02T02:46:04.108Z,3.45
2018-01-02T02:48:31.634Z,1.75
2018-01-02T02:51:00.067Z,1.92
2018-01-02T02:53:27.587Z,1.42
2018-01-02T02:55:55.135Z,1.62
2018-01-02T02:58:25.619Z,1.60
2018-01-02T03:00:53.133Z,5.07
2018-01-02T03:03:20.624Z,3.85
2018-01-02T03:05:48.148Z,2.35
2018-01-02T03:08:16.563Z,1.85
2018-01-02T03:10:44.061Z,1.23
2018-01-02T03:13:12.333Z,1.02
2018-01-02T03:15:40.611Z,1.40
2018-01-02T03:18:08.892Z,1.50
2018-01-02T03:20:38.162Z,1.95
2018-01-02T03:23:05.680Z,2.12
2018-01-02T03:25:33.200Z,1.67
2018-01-02T03:28:00.692Z,1.65
2018-01-02T03:30:28.214Z,2.30
2018-01-02T03:32:55.704Z,1.35
2018-01-02T03:35:23.209Z,1.00
2018-01-02T03:37:50.722Z,0.70
2018-01-02T03:40:18.236Z,3.08
2018-01-02T03:42:45.760Z,0.90
2018-01-02T03:45:13.254Z,1.23
2018-01-02T03:47:40.752Z,1.35
2018-01-02T03:50:09.036Z,0.90
2018-01-02T03:52:36.527Z,0.90
2018-01-02T03:55:04.037Z,0.60
2018-01-02T03:57:32.305Z,0.93
2018-01-02T03:59:59.811Z,0.90
2018-01-02T04:02:27.554Z,1.52
2018-01-02T04:04:55.053Z,2.00
2018-01-02T04:07:22.572Z,1.90
2018-01-02T04:09:50.092Z,1.00
2018-01-02T04:12:17.588Z,0.60
2018-01-02T04:14:45.869Z,0.70
2018-01-02T04:17:13.360Z,0.70
2018-01-02T04:19:40.867Z,0.60
2018-01-02T04:22:09.127Z,0.70
2018-01-02T04:24:36.608Z,2.78
2018-01-02T04:27:04.875Z,0.82
2018-01-02T04:29:32.359Z,0.60
2018-01-02T04:32:00.622Z,0.60
2018-01-02T04:34:28.884Z,0.50
2018-01-02T04:36:56.395Z,1.35
2018-01-02T04:39:23.981Z,0.80
2018-01-02T04:41:51.470Z,0.65
2018-01-02T04:44:18.983Z,0.60
2018-01-02T04:46:47.231Z,0.60
2018-01-02T04:49:14.751Z,0.60
2018-01-02T04:51:42.240Z,0.60
2018-01-02T04:54:10.516Z,0.75
2018-01-02T04:56:38.776Z,1.95
2018-01-02T04:59:06.276Z,0.60
2018-01-02T05:01:33.788Z,0.60
2018-01-02T05:04:01.284Z,1.45
2018-01-02T05:06:28.813Z,2.25
2018-01-02T05:08:56.304Z,3.45
2018-01-02T05:11:23.804Z,0.60
2018-01-02T05:13:51.316Z,2.87
2018-01-02T05:16:18.812Z,1.05
2018-01-02T05:18:46.442Z,1.50
2018-01-02T05:21:13.944Z,4.22
2018-01-02T05:23:41.463Z,4.03
2018-01-02T05:26:08.960Z,4.32
2018-01-02T05:28:36.456Z,4.85
2018-01-02T05:31:03.960Z,3.72
2018-01-02T05:33:31.459Z,1.80
2018-01-02T05:35:58.975Z,5.00
2018-01-02T05:38:30.075Z,2.50
2018-01-02T05:40:58.361Z,3.45
2018-01-02T05:43:26.680Z,2.28
2018-01-02T05:45:54.180Z,4.32
2018-01-02T05:48:21.696Z,1.20
2018-01-02T05:50:49.192Z,2.05
2018-01-02T05:53:16.706Z,1.45
2018-01-02T05:55:44.256Z,2.03
2018-01-02T05:58:13.110Z,2.30
2018-01-02T06:00:40.637Z,5.00
2018-01-02T06:03:08.165Z,5.62
2018-01-02T06:05:35.903Z,6.65
2018-01-02T06:08:03.474Z,2.50
2018-01-02T06:10:31.036Z,1.80
2018-01-02T06:12:59.403Z,2.22
2018-01-02T06:15:27.760Z,2.75
2018-01-02T06:18:12.620Z,1.25
2018-01-02T06:20:41.055Z,11.45
2018-01-02T06:23:08.614Z,2.22
2018-01-02T06:25:36.143Z,5.60
2018-01-02T06:28:03.761Z,2.83
2018-01-02T06:30:31.284Z,6.10
2018-01-02T06:32:59.887Z,3.17
2018-01-02T06:35:27.401Z,3.78
2018-01-02T06:37:54.927Z,1.77
2018-01-02T06:40:22.457Z,1.60
2018-01-02T06:42:49.955Z,2.50
2018-01-02T06:45:17.502Z,6.97
2018-01-02T06:47:45.752Z,4.82
2018-01-02T06:50:14.000Z,5.78
2018-01-02T06:52:41.586Z,2.55
2018-01-02T06:55:09.163Z,4.18
2018-01-02T06:57:36.670Z,3.67
2018-01-02T07:00:04.196Z,4.35
2018-01-02T07:02:31.696Z,6.03
2018-01-02T07:04:59.222Z,2.85
2018-01-02T07:07:26.719Z,4.10
2018-01-02T07:09:55.192Z,2.28
2018-01-02T07:12:22.710Z,1.83
2018-01-02T07:14:51.003Z,3.60
2018-01-02T07:17:18.523Z,5.62
2018-01-02T07:19:46.788Z,4.28
2018-01-02T07:22:15.068Z,3.12
2018-01-02T07:24:43.344Z,2.95
2018-01-02T07:27:10.841Z,2.53
2018-01-02T07:29:39.292Z,1.00
2018-01-02T07:32:07.560Z,3.60
2018-01-02T07:34:35.860Z,3.35
2018-01-02T07:37:03.348Z,1.10
2018-01-02T07:39:30.843Z,1.90
2018-01-02T07:41:58.351Z,2.35
2018-01-02T07:44:25.856Z,7.60
2018-01-02T07:46:53.400Z,2.92
2018-01-02T07:49:24.510Z,1.20
2018-01-02T07:51:52.319Z,2.33
2018-01-02T07:54:20.387Z,2.22
2018-01-02T07:56:51.304Z,1.65
2018-01-02T07:59:27.906Z,3.92
2018-01-02T08:01:56.500Z,1.65
2018-01-02T08:04:24.589Z,1.90
2018-01-02T08:06:53.065Z,1.00
2018-01-02T08:09:24.977Z,2.33
2018-01-02T08:11:54.440Z,1.87
2018-01-02T08:14:21.966Z,1.80
2018-01-02T08:16:49.479Z,2.50
2018-01-02T08:19:16.981Z,3.05
2018-01-02T08:21:44.549Z,3.05
2018-01-02T08:24:12.049Z,2.58
2018-01-02T08:26:40.337Z,7.18
2018-01-02T08:29:08.763Z,2.97
2018-01-02T08:31:36.261Z,1.80
2018-01-02T08:34:04.570Z,5.43
2018-01-02T08:36:32.672Z,3.12
2018-01-02T08:39:01.282Z,3.40
2018-01-02T08:41:28.790Z,2.28
2018-01-02T08:43:56.308Z,2.00
2018-01-02T08:46:24.584Z,2.92
2018-01-02T08:48:54.792Z,4.60
2018-01-02T08:51:24.330Z,2.75
2018-01-02T08:53:52.596Z,1.58
2018-01-02T08:56:20.893Z,5.28
2018-01-02T08:58:48.416Z,2.90
2018-01-02T09:01:15.945Z,9.63
2018-01-02T09:03:43.446Z,3.20
2018-01-02T09:06:10.937Z,3.05
2018-01-02T09:08:39.411Z,6.43
2018-01-02T09:11:06.959Z,3.20
2018-01-02T09:13:40.262Z,2.20
2018-01-02T09:16:07.756Z,3.65
2018-01-02T09:18:37.180Z,4.65
2018-01-02T09:21:04.698Z,5.03
2018-01-02T09:23:32.211Z,4.68
2018-01-02T09:25:59.736Z,5.35
2018-01-02T09:28:27.244Z,4.12
2018-01-02T09:30:55.518Z,2.90
2018-01-02T09:33:23.821Z,7.80
2018-01-02T09:35:51.320Z,6.65
2018-01-02T09:38:18.880Z,5.43
2018-01-02T09:40:46.348Z,2.17
2018-01-02T09:43:13.843Z,5.68
2018-01-02T09:45:42.128Z,5.43
2018-01-02T09:48:10.588Z,9.23
2018-01-02T09:50:38.904Z,1.83
2018-01-02T09:53:06.399Z,2.30
2018-01-02T09:55:33.904Z,3.87
2018-01-02T09:58:02.205Z,8.80
2018-01-02T10:00:29.718Z,3.67
2018-01-02T10:02:57.266Z,6.25
2018-01-02T10:05:24.768Z,7.00
2018-01-02T10:07:53.041Z,4.70
2018-01-02T10:10:21.321Z,4.30
2018-01-02T10:12:49.592Z,2.25
2018-01-02T10:15:17.121Z,3.72
2018-01-02T10:17:44.623Z,6.40
2018-01-02T10:20:20.464Z,5.62
2018-01-02T10:22:56.401Z,3.53
2018-01-02T10:25:23.931Z,6.35
2018-01-02T10:27:51.443Z,4.35
2018-01-02T10:30:18.946Z,11.68
2018-01-02T10:32:46.461Z,2.62
2018-01-02T10:35:14.748Z,3.10
2018-01-02T10:37:42.238Z,3.35
2018-01-02T10:40:09.748Z,3.08
2018-01-02T10:42:38.018Z,5.50
2018-01-02T10:45:05.543Z,2.78
2018-01-02T10:47:33.045Z,4.95
2018-01-02T10:50:01.337Z,4.62
2018-01-02T10:52:28.841Z,5.03
2018-01-02T10:54:56.345Z,6.65
2018-01-02T10:57:24.621Z,2.42
2018-01-02T10:59:52.876Z,9.57
2018-01-02T11:02:20.387Z,3.28
2018-01-02T11:04:47.892Z,6.12
2018-01-02T11:07:15.491Z,3.40
2018-01-02T11:09:43.772Z,2.25
2018-01-02T11:12:15.171Z,6.25
2018-01-02T11:14:42.693Z,5.20
2018-01-02T11:17:10.198Z,5.75
2018-01-02T11:19:37.857Z,2.92
2018-01-02T11:22:05.364Z,10.23
2018-01-02T11:24:32.853Z,5.75
2018-01-02T11:27:00.365Z,12.80
2018-01-02T11:29:28.619Z,3.53
2018-01-02T11:31:56.140Z,6.10
2018-01-02T11:34:23.632Z,3.83
2018-01-02T11:36:51.116Z,4.05
2018-01-02T11:39:19.388Z,11.23
2018-01-02T11:41:47.652Z,4.72
2018-01-02T11:44:15.169Z,4.18
2018-01-02T11:46:42.661Z,3.17
2018-01-02T11:49:10.180Z,2.65
2018-01-02T11:51:37.686Z,3.03
2018-01-02T11:54:05.188Z,3.00
2018-01-02T11:56:32.702Z,4.10
2018-01-02T11:59:01.172Z,1.45
2018-01-02T12:01:28.688Z,3.45
2018-01-02T12:03:56.188Z,1.52
2018-01-02T12:06:23.690Z,1.55
2018-01-02T12:08:51.968Z,4.15
2018-01-02T12:11:20.234Z,3.40
2018-01-02T12:13:47.730Z,5.35
2018-01-02T12:16:16.110Z,2.28
2018-01-02T12:18:43.644Z,6.22
2018-01-02T12:21:15.020Z,5.60
2018-01-02T12:23:42.536Z,4.03
2018-01-02T12:26:10.057Z,1.90
2018-01-02T12:28:37.554Z,4.62
2018-01-02T12:31:05.840Z,3.60
2018-01-02T12:33:33.391Z,4.15
2018-01-02T12:36:00.911Z,9.88
2018-01-02T12:38:28.415Z,3.28
2018-01-02T12:40:55.924Z,4.07
2018-01-02T12:43:23.437Z,4.62
2018-01-02T12:45:51.717Z,5.15
2018-01-02T12:48:19.994Z,6.00
2018-01-02T12:50:47.526Z,6.55
2018-01-02T12:53:15.145Z,2.90
2018-01-02T12:55:42.645Z,3.67
2018-01-02T12:58:10.164Z,3.90
2018-01-02T13:00:37.657Z,3.37
2018-01-02T13:03:05.176Z,3.20
2018-01-02T13:05:32.672Z,4.75
2018-01-02T13:08:00.177Z,2.53
2018-01-02T13:10:28.460Z,1.95
2018-01-02T13:12:56.716Z,3.10
2018-01-02T13:15:24.223Z,9.75
2018-01-02T13:17:51.731Z,4.70
2018-01-02T13:20:19.235Z,2.70
2018-01-02T13:22:46.755Z,6.35
2018-01-02T13:25:14.258Z,10.32
2018-01-02T13:27:41.788Z,8.63
2018-01-02T13:30:10.059Z,6.32
2018-01-02T13:32:38.333Z,4.30
2018-01-02T13:35:06.634Z,3.08
2018-01-02T13:37:34.133Z,5.55
2018-01-02T13:40:01.658Z,3.37
2018-01-02T13:42:29.166Z,9.07
2018-01-02T13:44:56.685Z,3.28
2018-01-02T13:47:24.221Z,6.20
2018-01-02T13:49:52.493Z,4.70
2018-01-02T13:52:20.785Z,3.80
2018-01-02T13:54:48.285Z,5.72
2018-01-02T13:57:15.812Z,3.65
2018-01-02T13:59:43.351Z,5.32
2018-01-02T14:02:10.880Z,3.37
2018-01-02T14:04:38.421Z,3.87
2018-01-02T14:07:05.932Z,13.13
2018-01-02T14:09:38.920Z,9.40
2018-01-02T14:12:07.196Z,8.63
2018-01-02T14:14:35.475Z,3.83
2018-01-02T14:17:03.764Z,3.62
2018-01-02T14:19:33.028Z,11.93
2018-01-02T14:22:01.324Z,5.82
2018-01-02T14:24:29.584Z,3.50
2018-01-02T14:26:57.084Z,4.43
2018-01-02T14:29:24.624Z,3.83
2018-01-02T14:31:52.885Z,10.38
2018-01-02T14:34:20.397Z,10.40
2018-01-02T14:36:47.897Z,6.70
2018-01-02T14:39:15.393Z,8.77
2018-01-02T14:41:43.685Z,11.48
2018-01-02T14:44:11.640Z,5.62
2018-01-02T14:46:39.183Z,4.90
2018-01-02T14:49:07.456Z,5.85
2018-01-02T14:51:35.732Z,9.48
2018-01-02T14:54:03.260Z,7.87
2018-01-02T14:56:30.761Z,5.82
2018-01-02T14:58:59.040Z,10.68
2018-01-02T15:01:27.312Z,8.57
2018-01-02T15:03:55.709Z,8.35
2018-01-02T15:06:23.232Z,6.90
2018-01-02T15:08:50.737Z,9.15
2018-01-02T15:11:18.255Z,9.13
2018-01-02T15:13:45.780Z,6.12
2018-01-02T15:16:13.289Z,7.60
2018-01-02T15:18:41.568Z,5.80
2018-01-02T15:21:09.856Z,10.60
2018-01-02T15:23:38.124Z,6.80
2018-01-02T15:26:06.413Z,5.55
2018-01-02T15:28:34.665Z,8.00
2018-01-02T15:31:02.189Z,6.43
2018-01-02T15:33:29.693Z,7.28
2018-01-02T15:35:57.949Z,9.50
2018-01-02T15:38:25.488Z,10.23
2018-01-02T15:40:52.992Z,7.78
2018-01-02T15:43:23.104Z,8.70
2018-01-02T15:45:51.450Z,9.20
2018-01-02T15:48:18.961Z,10.82
2018-01-02T15:50:47.286Z,4.35
2018-01-02T15:53:14.793Z,5.05
2018-01-02T15:55:43.079Z,6.37
2018-01-02T15:58:11.450Z,10.35
2018-01-02T16:00:39.861Z,5.85
2018-01-02T16:03:07.419Z,7.45
2018-01-02T16:05:34.998Z,8.18
2018-01-02T16:08:06.132Z,7.28
2018-01-02T16:10:33.683Z,11.70
2018-01-02T16:13:01.212Z,5.80
2018-01-02T16:15:29.554Z,8.25
2018-01-02T16:17:57.114Z,13.23
2018-01-02T16:20:24.693Z,10.15
2018-01-02T16:22:52.226Z,8.02
2018-01-02T16:25:19.790Z,8.95
2018-01-02T16:27:47.354Z,4.60
2018-01-02T16:30:14.915Z,6.45
2018-01-02T16:32:42.491Z,13.48
2018-01-02T16:35:10.025Z,6.50
2018-01-02T16:37:37.616Z,7.05
2018-01-02T16:40:05.153Z,9.38
2018-01-02T16:42:32.678Z,7.62
2018-01-02T16:45:03.649Z,5.85
2018-01-02T16:47:31.154Z,7.72
2018-01-02T16:49:59.428Z,5.00
2018-01-02T16:52:26.983Z,13.93
2018-01-02T16:54:54.542Z,8.13
2018-01-02T16:57:22.925Z,15.90
2018-01-02T16:59:51.196Z,9.95
2018-01-02T17:02:18.704Z,10.07
2018-01-02T17:04:46.240Z,7.82
2018-01-02T17:07:14.515Z,11.02
2018-01-02T17:09:42.801Z,8.48
2018-01-02T17:12:10.430Z,8.38
2018-01-02T17:14:37.959Z,10.32
2018-01-02T17:17:05.467Z,20.88
2018-01-02T17:19:33.733Z,9.55
2018-01-02T17:22:01.253Z,9.13
2018-01-02T17:24:28.760Z,10.00
2018-01-02T17:26:57.058Z,9.43
2018-01-02T17:29:24.563Z,10.95
2018-01-02T17:31:52.059Z,10.80
2018-01-02T17:34:20.344Z,11.18
2018-01-02T17:36:48.613Z,22.55
2018-01-02T17:39:17.892Z,14.38
2018-01-02T17:41:45.410Z,12.75
2018-01-02T17:44:13.772Z,10.48
2018-01-02T17:46:41.272Z,10.02
2018-01-02T17:49:15.508Z,7.57
2018-01-02T17:51:44.537Z,8.60
2018-01-02T17:54:12.228Z,10.52
2018-01-02T17:56:39.803Z,10.40
2018-01-02T17:59:12.685Z,12.40
2018-01-02T18:01:40.187Z,11.12
2018-01-02T18:04:08.460Z,10.98
2018-01-02T18:06:36.045Z,6.93
2018-01-02T18:09:13.264Z,12.85
2018-01-02T18:11:40.793Z,14.15
2018-01-02T18:14:08.285Z,8.68
2018-01-02T18:16:35.785Z,17.85
2018-01-02T18:19:03.306Z,8.35
2018-01-02T18:21:30.809Z,11.32
2018-01-02T18:23:58.322Z,7.50
2018-01-02T18:26:25.820Z,10.45
2018-01-02T18:28:53.345Z,11.18
2018-01-02T18:31:20.863Z,19.65
2018-01-02T18:33:49.144Z,12.55
2018-01-02T18:36:16.666Z,7.55
2018-01-02T18:38:44.175Z,19.45
2018-01-02T18:41:11.683Z,9.82
2018-01-02T18:43:39.216Z,13.07
2018-01-02T18:46:06.720Z,10.52
2018-01-02T18:48:37.444Z,17.33
2018-01-02T18:51:04.968Z,10.35
2018-01-02T18:53:32.468Z,14.65
2018-01-02T18:55:59.989Z,9.40
2018-01-02T18:58:33.493Z,16.40
2018-01-02T19:01:01.009Z,14.82
2018-01-02T19:03:29.275Z,15.32
2018-01-02T19:05:57.540Z,12.60
2018-01-02T19:08:25.060Z,11.38
2018-01-02T19:10:52.576Z,15.93
2018-01-02T19:13:20.885Z,10.57
2018-01-02T19:15:48.522Z,21.98
2018-01-02T19:18:16.788Z,8.32
2018-01-02T19:20:45.090Z,10.35
2018-01-02T19:23:13.506Z,7.05
2018-01-02T19:25:41.034Z,9.10
2018-01-02T19:28:08.613Z,11.77
2018-01-02T19:30:36.190Z,7.82
2018-01-02T19:33:03.725Z,12.60
2018-01-02T19:35:31.220Z,20.20
2018-01-02T19:37:58.745Z,10.68
2018-01-02T19:40:26.274Z,12.50
2018-01-02T19:42:54.545Z,10.82
2018-01-02T19:45:22.058Z,12.85
2018-01-02T19:47:49.572Z,8.68
2018-01-02T19:50:17.834Z,10.00
2018-01-02T19:52:45.336Z,13.48
2018-01-02T19:55:12.907Z,11.12
2018-01-02T19:57:40.450Z,10.65
2018-01-02T20:00:07.972Z,19.02
2018-01-02T20:02:35.473Z,13.80
2018-01-02T20:05:02.982Z,12.20
2018-01-02T20:07:30.505Z,7.20
2018-01-02T20:09:58.001Z,16.58
2018-01-02T20:12:25.518Z,11.98
2018-01-02T20:14:53.036Z,7.30
2018-01-02T20:17:21.305Z,8.55
2018-01-02T20:19:48.840Z,13.77
2018-01-02T20:22:16.372Z,7.60
2018-01-02T20:24:43.888Z,12.43
2018-01-02T20:27:11.386Z,7.72
2018-01-02T20:29:38.913Z,13.48
2018-01-02T20:32:07.176Z,10.20
2018-01-02T20:34:34.672Z,10.68
2018-01-02T20:37:02.185Z,13.05
2018-01-02T20:39:29.680Z,11.32
2018-01-02T20:41:57.958Z,9.63
2018-01-02T20:44:26.217Z,5.12
2018-01-02T20:46:54.479Z,12.35
2018-01-02T20:49:22.036Z,13.00
2018-01-02T20:51:49.539Z,11.73
2018-01-02T20:54:17.067Z,6.03
2018-01-02T20:56:44.573Z,12.18
2018-01-02T20:59:12.123Z,8.20
2018-01-02T21:01:39.617Z,9.88
2018-01-02T21:04:07.116Z,14.25
2018-01-02T21:06:35.403Z,12.15
2018-01-02T21:09:02.912Z,5.65
2018-01-02T21:11:30.441Z,8.88
2018-01-02T21:13:57.941Z,10.68
2018-01-02T21:16:25.462Z,11.85
2018-01-02T21:18:53.746Z,7.55
2018-01-02T21:21:21.266Z,2.67
2018-01-02T21:23:49.548Z,7.00
2018-01-02T21:26:17.800Z,13.70
2018-01-02T21:28:45.304Z,3.90
2018-01-02T21:31:12.827Z,8.68
2018-01-02T21:33:40.321Z,8.15
2018-01-02T21:36:07.847Z,5.87
2018-01-02T21:38:35.368Z,4.75
2018-01-02T21:41:02.863Z,7.57
2018-01-02T21:43:30.384Z,6.43
2018-01-02T21:45:57.876Z,3.10
2018-01-02T21:48:25.377Z,4.50
2018-01-02T21:50:52.888Z,3.75
2018-01-02T21:53:20.385Z,7.25
2018-01-02T21:55:48.656Z,3.47
2018-01-02T21:58:16.925Z,4.35
2018-01-02T22:00:44.417Z,3.17
2018-01-02T22:03:11.924Z,8.73
2018-01-02T22:05:39.425Z,3.10
2018-01-02T22:08:08.590Z,4.28
2018-01-02T22:10:36.902Z,3.75
2018-01-02T22:13:04.393Z,5.75
2018-01-02T22:15:31.893Z,4.05
2018-01-02T22:17:59.421Z,2.42
2018-01-02T22:20:26.924Z,5.20
2018-01-02T22:22:55.229Z,5.57
2018-01-02T22:25:22.726Z,3.37
2018-01-02T22:27:50.220Z,3.20
2018-01-02T22:30:18.506Z,4.78
2018-01-02T22:32:46.052Z,6.75
2018-01-02T22:35:14.344Z,5.47
2018-01-02T22:37:42.600Z,6.05
2018-01-02T22:40:10.112Z,7.30
2018-01-02T22:42:37.633Z,5.45
2018-01-02T22:45:05.921Z,6.43
2018-01-02T22:47:33.428Z,2.05
2018-01-02T22:50:01.943Z,4.50
2018-01-02T22:52:30.202Z,2.40
2018-01-02T22:54:57.728Z,4.15
2018-01-02T22:57:25.269Z,2.55
2018-01-02T22:59:52.861Z,2.55
2018-01-02T23:02:20.372Z,5.87
2018-01-02T23:04:48.641Z,2.53
2018-01-02T23:07:17.009Z,3.00
2018-01-02T23:09:45.296Z,2.25
2018-01-02T23:12:12.794Z,5.82
2018-01-02T23:14:40.316Z,2.25
2018-01-02T23:17:07.816Z,7.15
2018-01-02T23:19:35.333Z,8.35
2018-01-02T23:22:02.873Z,2.70
2018-01-02T23:24:30.413Z,1.30
2018-01-02T23:26:57.941Z,3.50
2018-01-02T23:29:25.442Z,3.30
2018-01-02T23:31:52.950Z,2.05
2018-01-02T23:34:20.468Z,3.30
2018-01-02T23:36:47.965Z,2.90
2018-01-02T23:39:16.248Z,1.23
2018-01-02T23:41:43.753Z,3.75
2018-01-02T23:44:11.264Z,1.80
2018-01-02T23:46:38.768Z,4.10
2018-01-02T23:49:06.279Z,3.28
2018-01-02T23:51:34.559Z,1.30
2018-01-02T23:54:02.071Z,3.22
2018-01-02T23:56:29.586Z,1.73
2018-01-02T23:58:57.084Z,2.60
